Terminal Aerodrome Forecast
Issued by NWS

Home | Current Version | Previous Version | Text Only | Print | Product List | Glossary On
Versions: 1 2 3 4 5 6 7 8 9 10 11 12 13 14 15 16 17
000
FTUS43 KILX 251100
TAFDEC
TAF
KDEC 251139Z 2512/2612 17004KT P6SM -RA OVC040
     FM251600 06009KT 3SM -RA BR SCT006 OVC012
     FM251900 03015G25KT 2SM -RA BR OVC008
     FM252300 02018G28KT 1 1/2SM -SN BR OVC006
     FM260100 01015G25KT P6SM OVC020
     FM260700 36013KT P6SM BKN025=

USA.gov is the U.S. government's official web portal to all federal, state and local government web resources and services.